Portada
METAR-TAF:

METAR-TAF

Aeroports :

Córdoba, Argentina

latitud: 31-19S, longitud: 064-13W, altitud: 484 m

Observació

L'informe es va fer fa 45 minuts, a les 10:00 UTC
Vent 6 kt del Sud-Oest
Temperatura 9°C
Humitat 66%
Pressió 1026 hPa
Visibilitat 10 km o més
sense núvols per sota de 1500 mi sense presència de cumulonimbus.

METAR: SACO 141000Z 22006KT CAVOK 09/03 Q1026 NOSIG

Hora: 07:45 (10:45 UTC)

Pronòstic

L'informe es va fer fa 5 hores i 45 minuts, a les 05:00 UTC
Pronòstic vàlid del 14 a les 06 UTC al 15 a les 06 UTC
Vent 10 kt del Sud/Sud-Oest amb ràfegues de 15 kt
Visibilitat 10 km o més
sense núvols per sota de 1500 mi sense presència de cumulonimbus.
Evolucionant progressivament
l' 14 a les 15 UTC al 14 a les 18 UTC
Vent 10 kt del Sud/Sud-Est
Visibilitat 10 km o més
sense núvols per sota de 1500 mi sense presència de cumulonimbus.

TAF: SACO 140500Z 1406/1506 20010G15KT CAVOK TX18/1418Z TN03/1410Z BECMG 1415/1418 16010KT CAVOK

Observacions i pronòstics meteorològics de més de 4000 aeroports (METAR i TAF).

Les estacions disponibles són els punts grocs i vermells al mapa.

Posi el ratolí al punt desitjat per veure el nom de l'estació.

Feu clic per veure les observacions i els pronòstics meteorològics.

Per canviar el mapa: feu clic els botons verds amb una creu de color negre per apropar; al botó verd amb un guió per allunyar la imatge; o en les fletxes verdes per a mapes adjacents.


METAR-TAF: